createdAt,value
2023-05-21T00:00:37.239Z,1023.15
2023-05-21T00:01:37.249Z,1023.11
2023-05-21T00:02:37.305Z,1023.12
2023-05-21T00:03:37.274Z,1023.08
2023-05-21T00:04:37.242Z,1023.1
2023-05-21T00:05:37.595Z,1023.1
2023-05-21T00:06:37.312Z,1023.14
2023-05-21T00:07:37.234Z,1023.11
2023-05-21T00:08:37.247Z,1023.13
2023-05-21T00:09:37.247Z,1023.1
2023-05-21T00:10:37.235Z,1023.1
2023-05-21T00:11:37.233Z,1023.06
2023-05-21T00:12:37.246Z,1023.12
2023-05-21T00:13:37.249Z,1023.06
2023-05-21T00:14:37.244Z,1023.04
2023-05-21T00:15:37.575Z,1023.03
2023-05-21T00:16:37.271Z,1023.03
2023-05-21T00:17:37.314Z,1022.98
2023-05-21T00:18:37.248Z,1023.01
2023-05-21T00:19:37.251Z,1022.99
2023-05-21T00:20:37.245Z,1022.99
2023-05-21T00:21:37.241Z,1022.98
2023-05-21T00:22:37.262Z,1022.93
2023-05-21T00:23:37.246Z,1022.97
2023-05-21T00:24:37.235Z,1022.99
2023-05-21T00:25:37.368Z,1022.99
2023-05-21T00:26:37.237Z,1022.99
2023-05-21T00:27:37.244Z,1022.95
2023-05-21T00:28:37.253Z,1022.99
2023-05-21T00:29:37.235Z,1022.97
2023-05-21T00:30:37.245Z,1022.94
2023-05-21T00:31:37.280Z,1022.96
2023-05-21T00:32:37.279Z,1022.95
2023-05-21T00:33:37.231Z,1022.93
2023-05-21T00:34:37.229Z,1022.92
2023-05-21T00:35:37.333Z,1022.91
2023-05-21T00:36:37.241Z,1022.94
2023-05-21T00:37:37.248Z,1022.97
2023-05-21T00:38:37.231Z,1022.95
2023-05-21T00:39:37.235Z,1022.94
2023-05-21T00:40:37.243Z,1022.94
2023-05-21T00:41:37.248Z,1022.93
2023-05-21T00:42:37.248Z,1022.94
2023-05-21T00:43:37.245Z,1022.93
2023-05-21T00:44:37.228Z,1022.9
2023-05-21T00:45:37.550Z,1022.9
2023-05-21T00:46:37.235Z,1022.9
2023-05-21T00:47:37.255Z,1022.82
2023-05-21T00:48:37.233Z,1022.88
2023-05-21T00:49:37.243Z,1022.83
2023-05-21T00:50:37.229Z,1022.81
2023-05-21T00:51:37.243Z,1022.83
2023-05-21T00:52:37.238Z,1022.85
2023-05-21T00:53:37.236Z,1022.85
2023-05-21T00:54:37.233Z,1022.84
2023-05-21T00:55:37.453Z,1022.83
2023-05-21T00:56:37.239Z,1022.84
2023-05-21T00:57:37.253Z,1022.84
2023-05-21T00:58:37.252Z,1022.82
2023-05-21T00:59:37.233Z,1022.83
2023-05-21T01:00:37.242Z,1022.83
2023-05-21T01:01:37.413Z,1022.82
2023-05-21T01:02:37.632Z,1022.83
2023-05-21T01:03:37.285Z,1022.87
2023-05-21T01:04:37.241Z,1022.84
2023-05-21T01:05:37.480Z,1022.8
2023-05-21T01:06:37.231Z,1022.78
2023-05-21T01:07:37.229Z,1022.78
2023-05-21T01:08:37.232Z,1022.81
2023-05-21T01:09:37.232Z,1022.82
2023-05-21T01:10:37.236Z,1022.78
2023-05-21T01:11:37.229Z,1022.8
2023-05-21T01:12:37.247Z,1022.78
2023-05-21T01:13:37.254Z,1022.79
2023-05-21T01:14:37.234Z,1022.8
2023-05-21T01:15:37.401Z,1022.8
2023-05-21T01:16:37.270Z,1022.75
2023-05-21T01:17:37.272Z,1022.77
2023-05-21T01:18:37.275Z,1022.75
2023-05-21T01:19:37.307Z,1022.73
2023-05-21T01:20:37.228Z,1022.68
2023-05-21T01:21:37.241Z,1022.68
2023-05-21T01:22:37.233Z,1022.66
2023-05-21T01:23:37.248Z,1022.66
2023-05-21T01:24:37.240Z,1022.66
2023-05-21T01:25:37.367Z,1022.68
2023-05-21T01:26:37.231Z,1022.65
2023-05-21T01:27:37.238Z,1022.69
2023-05-21T01:28:37.283Z,1022.64
2023-05-21T01:29:37.255Z,1022.7
2023-05-21T01:30:37.248Z,1022.65
2023-05-21T01:31:37.228Z,1022.66
2023-05-21T01:32:37.343Z,1022.63
2023-05-21T01:33:37.352Z,1022.63
2023-05-21T01:34:37.229Z,1022.61
2023-05-21T01:35:37.412Z,1022.6
2023-05-21T01:36:37.233Z,1022.61
2023-05-21T01:37:37.234Z,1022.6
2023-05-21T01:38:37.237Z,1022.6
2023-05-21T01:39:37.241Z,1022.57
2023-05-21T01:40:37.240Z,1022.55
2023-05-21T01:41:37.225Z,1022.57
2023-05-21T01:42:37.244Z,1022.57
2023-05-21T01:43:37.257Z,1022.57
2023-05-21T01:44:37.245Z,1022.53
2023-05-21T01:45:37.362Z,1022.55
2023-05-21T01:46:37.256Z,1022.55
2023-05-21T01:47:37.272Z,1022.55
2023-05-21T01:48:37.242Z,1022.56
2023-05-21T01:49:37.234Z,1022.58
2023-05-21T01:50:37.231Z,1022.58
2023-05-21T01:51:37.236Z,1022.6
2023-05-21T01:52:37.240Z,1022.61
2023-05-21T01:53:37.232Z,1022.58
2023-05-21T01:54:37.230Z,1022.63
2023-05-21T01:55:37.455Z,1022.6
2023-05-21T01:56:37.245Z,1022.59
2023-05-21T01:57:37.252Z,1022.59
2023-05-21T01:58:37.270Z,1022.56
2023-05-21T01:59:37.225Z,1022.57
2023-05-21T02:00:37.224Z,1022.54
2023-05-21T02:01:37.324Z,1022.56
2023-05-21T02:02:37.304Z,1022.56
2023-05-21T02:03:37.321Z,1022.52
2023-05-21T02:04:37.240Z,1022.5
2023-05-21T02:05:37.414Z,1022.51
2023-05-21T02:06:37.242Z,1022.47
2023-05-21T02:07:37.245Z,1022.49
2023-05-21T02:08:37.241Z,1022.45
2023-05-21T02:09:37.237Z,1022.45
2023-05-21T02:10:37.248Z,1022.44
2023-05-21T02:11:37.238Z,1022.43
2023-05-21T02:12:37.252Z,1022.42
2023-05-21T02:13:37.275Z,1022.38
2023-05-21T02:14:37.243Z,1022.38
2023-05-21T02:15:37.432Z,1022.41
2023-05-21T02:16:37.288Z,1022.38
2023-05-21T02:17:37.265Z,1022.38
2023-05-21T02:18:37.237Z,1022.34
2023-05-21T02:19:37.286Z,1022.36
2023-05-21T02:20:37.244Z,1022.35
2023-05-21T02:21:37.228Z,1022.32
2023-05-21T02:22:37.237Z,1022.36
2023-05-21T02:23:37.236Z,1022.4
2023-05-21T02:24:37.235Z,1022.33
2023-05-21T02:25:37.540Z,1022.3
2023-05-21T02:26:37.236Z,1022.31
2023-05-21T02:27:37.268Z,1022.29
2023-05-21T02:28:37.255Z,1022.34
2023-05-21T02:29:37.244Z,1022.31
2023-05-21T02:30:37.234Z,1022.38
2023-05-21T02:31:37.252Z,1022.35
2023-05-21T02:32:37.284Z,1022.34
2023-05-21T02:33:37.288Z,1022.34
2023-05-21T02:34:37.250Z,1022.38
2023-05-21T02:35:37.606Z,1022.36
2023-05-21T02:36:37.243Z,1022.42
2023-05-21T02:37:37.237Z,1022.37
2023-05-21T02:38:37.239Z,1022.37
2023-05-21T02:39:37.241Z,1022.37
2023-05-21T02:40:37.273Z,1022.4
2023-05-21T02:41:37.233Z,1022.36
2023-05-21T02:42:37.260Z,1022.34
2023-05-21T02:43:37.256Z,1022.4
2023-05-21T02:44:37.239Z,1022.37
2023-05-21T02:45:37.470Z,1022.35
2023-05-21T02:46:37.230Z,1022.36
2023-05-21T02:47:37.255Z,1022.41
2023-05-21T02:48:37.242Z,1022.41
2023-05-21T02:49:37.247Z,1022.37
2023-05-21T02:50:37.234Z,1022.4
2023-05-21T02:51:37.245Z,1022.38
2023-05-21T02:52:37.222Z,1022.35
2023-05-21T02:53:37.233Z,1022.38
2023-05-21T02:54:37.235Z,1022.42
2023-05-21T02:55:37.490Z,1022.42
2023-05-21T02:56:37.228Z,1022.44
2023-05-21T02:57:37.234Z,1022.44
2023-05-21T02:58:37.264Z,1022.43
2023-05-21T02:59:37.240Z,1022.45
2023-05-21T03:00:37.237Z,1022.45
2023-05-21T03:01:37.241Z,1022.46
2023-05-21T03:02:37.318Z,1022.46
2023-05-21T03:03:37.318Z,1022.44
2023-05-21T03:04:37.221Z,1022.43
2023-05-21T03:05:37.511Z,1022.4
2023-05-21T03:06:37.242Z,1022.45
2023-05-21T03:07:37.245Z,1022.42
2023-05-21T03:08:37.237Z,1022.42
2023-05-21T03:09:37.235Z,1022.42
2023-05-21T03:10:37.250Z,1022.45
2023-05-21T03:11:37.229Z,1022.48
2023-05-21T03:12:37.232Z,1022.44
2023-05-21T03:13:37.348Z,1022.48
2023-05-21T03:14:37.234Z,1022.47
2023-05-21T03:15:37.435Z,1022.46
2023-05-21T03:16:37.249Z,1022.48
2023-05-21T03:17:37.254Z,1022.47
2023-05-21T03:18:37.244Z,1022.45
2023-05-21T03:19:37.236Z,1022.45
2023-05-21T03:20:37.235Z,1022.48
2023-05-21T03:21:37.231Z,1022.47
2023-05-21T03:22:37.237Z,1022.49
2023-05-21T03:23:37.238Z,1022.46
2023-05-21T03:24:37.230Z,1022.47
2023-05-21T03:25:37.394Z,1022.44
2023-05-21T03:26:37.230Z,1022.43
2023-05-21T03:27:37.237Z,1022.47
2023-05-21T03:28:37.249Z,1022.44
2023-05-21T03:29:37.235Z,1022.41
2023-05-21T03:30:37.225Z,1022.46
2023-05-21T03:31:37.309Z,1022.42
2023-05-21T03:32:37.288Z,1022.43
2023-05-21T03:33:37.236Z,1022.46
2023-05-21T03:34:37.226Z,1022.44
2023-05-21T03:35:37.530Z,1022.44
2023-05-21T03:36:37.226Z,1022.43
2023-05-21T03:37:37.245Z,1022.46
2023-05-21T03:38:37.265Z,1022.44
2023-05-21T03:39:37.247Z,1022.41
2023-05-21T03:40:37.245Z,1022.37
2023-05-21T03:41:37.228Z,1022.43
2023-05-21T03:42:37.240Z,1022.44
2023-05-21T03:43:37.259Z,1022.47
2023-05-21T03:44:37.253Z,1022.44
2023-05-21T03:45:37.430Z,1022.49
2023-05-21T03:46:37.272Z,1022.47
2023-05-21T03:47:37.242Z,1022.48
2023-05-21T03:48:37.237Z,1022.49
2023-05-21T03:49:37.232Z,1022.46
2023-05-21T03:50:37.236Z,1022.38
2023-05-21T03:51:37.232Z,1022.46
2023-05-21T03:52:37.242Z,1022.43
2023-05-21T03:53:37.250Z,1022.43
2023-05-21T03:54:37.231Z,1022.43
2023-05-21T03:55:37.506Z,1022.45
2023-05-21T03:56:37.241Z,1022.48
2023-05-21T03:57:37.236Z,1022.48
2023-05-21T03:58:37.278Z,1022.45
2023-05-21T03:59:37.248Z,1022.45
2023-05-21T04:00:37.235Z,1022.43
2023-05-21T04:01:37.232Z,1022.46
2023-05-21T04:02:37.322Z,1022.48
2023-05-21T04:03:39.322Z,1022.44
2023-05-21T04:04:37.314Z,1022.44
2023-05-21T04:05:37.505Z,1022.46
2023-05-21T04:06:37.219Z,1022.45
2023-05-21T04:07:37.233Z,1022.43
2023-05-21T04:08:37.234Z,1022.42
2023-05-21T04:09:37.232Z,1022.44
2023-05-21T04:10:37.231Z,1022.43
2023-05-21T04:11:37.229Z,1022.4
2023-05-21T04:12:37.245Z,1022.41
2023-05-21T04:13:37.245Z,1022.43
2023-05-21T04:14:37.239Z,1022.49
2023-05-21T04:15:37.473Z,1022.46
2023-05-21T04:16:37.299Z,1022.47
2023-05-21T04:17:37.288Z,1022.44
2023-05-21T04:18:37.236Z,1022.49
2023-05-21T04:19:37.301Z,1022.43
2023-05-21T04:20:37.245Z,1022.43
2023-05-21T04:21:37.253Z,1022.44
2023-05-21T04:22:37.239Z,1022.42
2023-05-21T04:23:37.234Z,1022.45
2023-05-21T04:24:37.237Z,1022.46
2023-05-21T04:25:37.380Z,1022.46
2023-05-21T04:26:37.238Z,1022.46
2023-05-21T04:27:37.248Z,1022.49
2023-05-21T04:28:37.253Z,1022.45
2023-05-21T04:29:37.233Z,1022.45
2023-05-21T04:30:37.231Z,1022.5
2023-05-21T04:31:37.285Z,1022.48
2023-05-21T04:32:37.233Z,1022.47
2023-05-21T04:33:37.233Z,1022.5
2023-05-21T04:34:37.218Z,1022.54
2023-05-21T04:35:37.426Z,1022.51
2023-05-21T04:36:37.263Z,1022.53
2023-05-21T04:37:37.238Z,1022.52
2023-05-21T04:38:37.231Z,1022.46
2023-05-21T04:39:37.245Z,1022.45
2023-05-21T04:40:37.233Z,1022.48
2023-05-21T04:41:37.238Z,1022.4
2023-05-21T04:42:37.242Z,1022.43
2023-05-21T04:43:37.241Z,1022.41
2023-05-21T04:44:37.245Z,1022.43
2023-05-21T04:45:37.424Z,1022.44
2023-05-21T04:46:38.838Z,1022.4
2023-05-21T04:47:37.315Z,1022.38
2023-05-21T04:48:37.235Z,1022.36
2023-05-21T04:49:37.245Z,1022.41
2023-05-21T04:50:37.229Z,1022.37
2023-05-21T04:51:37.244Z,1022.43
2023-05-21T04:52:37.245Z,1022.35
2023-05-21T04:53:37.246Z,1022.36
2023-05-21T04:54:37.251Z,1022.37
2023-05-21T04:55:37.448Z,1022.36
2023-05-21T04:56:37.239Z,1022.36
2023-05-21T04:57:37.245Z,1022.36
2023-05-21T04:58:37.270Z,1022.4
2023-05-21T04:59:37.240Z,1022.33
2023-05-21T05:00:37.272Z,1022.32
2023-05-21T05:01:37.237Z,1022.34
2023-05-21T05:02:37.296Z,1022.31
2023-05-21T05:03:37.298Z,1022.31
2023-05-21T05:04:37.245Z,1022.34
2023-05-21T05:05:37.428Z,1022.35
2023-05-21T05:06:37.255Z,1022.31
2023-05-21T05:07:37.244Z,1022.33
2023-05-21T05:08:37.244Z,1022.33
2023-05-21T05:09:37.245Z,1022.32
2023-05-21T05:10:37.240Z,1022.32
2023-05-21T05:11:37.232Z,1022.28
2023-05-21T05:12:37.251Z,1022.3
2023-05-21T05:13:37.245Z,1022.3
2023-05-21T05:14:37.249Z,1022.29
2023-05-21T05:15:37.627Z,1022.25
2023-05-21T05:16:37.263Z,1022.28
2023-05-21T05:17:37.265Z,1022.3
2023-05-21T05:18:37.248Z,1022.28
2023-05-21T05:19:37.241Z,1022.3
2023-05-21T05:20:37.246Z,1022.31
2023-05-21T05:21:37.259Z,1022.31
2023-05-21T05:22:37.256Z,1022.34
2023-05-21T05:23:37.239Z,1022.32
2023-05-21T05:24:37.240Z,1022.37
2023-05-21T05:25:37.532Z,1022.34
2023-05-21T05:26:37.247Z,1022.33
2023-05-21T05:27:38.524Z,1022.32
2023-05-21T05:28:37.247Z,1022.28
2023-05-21T05:29:37.243Z,1022.25
2023-05-21T05:30:37.247Z,1022.27
2023-05-21T05:31:37.259Z,1022.24
2023-05-21T05:32:37.257Z,1022.25
2023-05-21T05:33:37.234Z,1022.27
2023-05-21T05:34:37.231Z,1022.24
2023-05-21T05:35:37.533Z,1022.23
2023-05-21T05:36:37.279Z,1022.23
2023-05-21T05:37:37.239Z,1022.18
2023-05-21T05:38:37.233Z,1022.18
2023-05-21T05:39:37.237Z,1022.15
2023-05-21T05:40:37.248Z,1022.12
2023-05-21T05:41:37.240Z,1022.06
2023-05-21T05:42:37.249Z,1022.08
2023-05-21T05:43:37.267Z,1022.11
2023-05-21T05:44:37.237Z,1022.08
2023-05-21T05:45:37.450Z,1022.08
2023-05-21T05:46:37.341Z,1022.09
2023-05-21T05:47:37.255Z,1022.06
2023-05-21T05:48:37.235Z,1022.09
2023-05-21T05:49:37.244Z,1022.1
2023-05-21T05:50:37.239Z,1022.08
2023-05-21T05:51:37.235Z,1022.08
2023-05-21T05:52:37.232Z,1022.04
2023-05-21T05:53:37.233Z,1021.99
2023-05-21T05:54:37.249Z,1022
2023-05-21T05:55:37.601Z,1021.98
2023-05-21T05:56:37.235Z,1021.98
2023-05-21T05:57:37.243Z,1021.98
2023-05-21T05:58:37.281Z,1022.01
2023-05-21T05:59:37.250Z,1022.01
2023-05-21T06:00:37.233Z,1021.99
2023-05-21T06:01:37.232Z,1021.96
2023-05-21T06:02:37.388Z,1021.95
2023-05-21T06:03:37.344Z,1021.95
2023-05-21T06:04:37.230Z,1021.97
2023-05-21T06:05:37.431Z,1021.98
2023-05-21T06:06:37.248Z,1021.97
2023-05-21T06:07:37.237Z,1021.96
2023-05-21T06:08:38.258Z,1021.99
2023-05-21T06:09:37.229Z,1022
2023-05-21T06:10:37.242Z,1022
2023-05-21T06:11:37.230Z,1021.95
2023-05-21T06:12:37.261Z,1022.01
2023-05-21T06:13:37.249Z,1021.98
2023-05-21T06:14:37.228Z,1021.92
2023-05-21T06:15:37.461Z,1021.94
2023-05-21T06:16:37.341Z,1021.92
2023-05-21T06:17:37.284Z,1021.96
2023-05-21T06:18:37.254Z,1021.94
2023-05-21T06:19:37.238Z,1021.97
2023-05-21T06:20:37.236Z,1021.98
2023-05-21T06:21:37.249Z,1021.98
2023-05-21T06:22:37.270Z,1021.95
2023-05-21T06:23:37.236Z,1021.96
2023-05-21T06:24:37.242Z,1021.92
2023-05-21T06:25:37.521Z,1021.91
2023-05-21T06:26:37.249Z,1021.87
2023-05-21T06:27:37.251Z,1021.88
2023-05-21T06:28:37.255Z,1021.85
2023-05-21T06:29:37.278Z,1021.77
2023-05-21T06:30:37.228Z,1021.79
2023-05-21T06:31:37.244Z,1021.78
2023-05-21T06:32:37.330Z,1021.78
2023-05-21T06:33:37.342Z,1021.77
2023-05-21T06:34:37.237Z,1021.77
2023-05-21T06:35:37.593Z,1021.77
2023-05-21T06:36:37.252Z,1021.79
2023-05-21T06:37:37.230Z,1021.81
2023-05-21T06:38:37.233Z,1021.82
2023-05-21T06:39:37.233Z,1021.82
2023-05-21T06:40:37.234Z,1021.87
2023-05-21T06:41:37.248Z,1021.82
2023-05-21T06:42:37.245Z,1021.83
2023-05-21T06:43:37.240Z,1021.85
2023-05-21T06:44:37.232Z,1021.86
2023-05-21T06:45:37.599Z,1021.84
2023-05-21T06:46:37.266Z,1021.91
2023-05-21T06:47:37.292Z,1021.86
2023-05-21T06:48:37.243Z,1021.85
2023-05-21T06:49:37.232Z,1021.92
2023-05-21T06:50:37.244Z,1021.87
2023-05-21T06:51:37.239Z,1021.89
2023-05-21T06:52:37.229Z,1021.91
2023-05-21T06:53:37.244Z,1021.91
2023-05-21T06:54:37.236Z,1021.96
2023-05-21T06:55:37.530Z,1021.95
2023-05-21T06:56:37.230Z,1021.99
2023-05-21T06:57:37.244Z,1021.99
2023-05-21T06:58:37.271Z,1021.94
2023-05-21T06:59:37.240Z,1021.96
2023-05-21T07:00:37.249Z,1021.95
2023-05-21T07:01:37.314Z,1021.98
2023-05-21T07:02:37.357Z,1021.99
2023-05-21T07:03:37.327Z,1021.99
2023-05-21T07:04:37.241Z,1021.92
2023-05-21T07:05:37.565Z,1021.92
2023-05-21T07:06:37.230Z,1021.94
2023-05-21T07:07:37.243Z,1021.9
2023-05-21T07:08:37.218Z,1021.98
2023-05-21T07:09:37.243Z,1021.9
2023-05-21T07:10:37.234Z,1021.89
2023-05-21T07:11:37.239Z,1021.86
2023-05-21T07:12:37.238Z,1021.86
2023-05-21T07:13:37.251Z,1021.86
2023-05-21T07:14:37.242Z,1021.85
2023-05-21T07:15:37.423Z,1021.86
2023-05-21T07:16:37.306Z,1021.83
2023-05-21T07:17:37.249Z,1021.85
2023-05-21T07:18:37.232Z,1021.86
2023-05-21T07:19:37.233Z,1021.83
2023-05-21T07:20:37.220Z,1021.79
2023-05-21T07:21:37.235Z,1021.83
2023-05-21T07:22:37.234Z,1021.81
2023-05-21T07:23:37.240Z,1021.78
2023-05-21T07:24:37.233Z,1021.81
2023-05-21T07:25:37.445Z,1021.78
2023-05-21T07:26:37.232Z,1021.76
2023-05-21T07:27:37.234Z,1021.76
2023-05-21T07:28:37.244Z,1021.77
2023-05-21T07:29:37.222Z,1021.74
2023-05-21T07:30:37.225Z,1021.72
2023-05-21T07:31:37.303Z,1021.66
2023-05-21T07:32:37.299Z,1021.7
2023-05-21T07:33:37.233Z,1021.64
2023-05-21T07:34:37.237Z,1021.64
2023-05-21T07:35:37.477Z,1021.64
2023-05-21T07:36:37.227Z,1021.63
2023-05-21T07:37:37.276Z,1021.63
2023-05-21T07:38:37.224Z,1021.66
2023-05-21T07:39:37.230Z,1021.67
2023-05-21T07:40:37.233Z,1021.64
2023-05-21T07:41:37.231Z,1021.71
2023-05-21T07:42:37.232Z,1021.73
2023-05-21T07:43:37.262Z,1021.7
2023-05-21T07:44:37.228Z,1021.66
2023-05-21T07:45:37.534Z,1021.65
2023-05-21T07:46:37.276Z,1021.63
2023-05-21T07:47:37.308Z,1021.66
2023-05-21T07:48:37.254Z,1021.63
2023-05-21T07:49:37.229Z,1021.65
2023-05-21T07:50:37.229Z,1021.65
2023-05-21T07:51:37.259Z,1021.68
2023-05-21T07:52:37.311Z,1021.61
2023-05-21T07:53:37.243Z,1021.63
2023-05-21T07:54:37.244Z,1021.7
2023-05-21T07:55:37.502Z,1021.66
2023-05-21T07:56:37.246Z,1021.63
2023-05-21T07:57:37.253Z,1021.63
2023-05-21T07:58:37.269Z,1021.61
2023-05-21T07:59:37.258Z,1021.6
2023-05-21T08:00:37.230Z,1021.65
2023-05-21T08:01:37.253Z,1021.61
2023-05-21T08:02:37.315Z,1021.57
2023-05-21T08:03:37.392Z,1021.6
2023-05-21T08:04:40.031Z,1021.64
2023-05-21T08:05:37.519Z,1021.64
2023-05-21T08:06:37.235Z,1021.61
2023-05-21T08:07:37.240Z,1021.62
2023-05-21T08:08:37.231Z,1021.67
2023-05-21T08:09:37.367Z,1021.64
2023-05-21T08:10:37.251Z,1021.65
2023-05-21T08:11:37.237Z,1021.63
2023-05-21T08:12:37.259Z,1021.64
2023-05-21T08:13:37.252Z,1021.65
2023-05-21T08:14:37.249Z,1021.66
2023-05-21T08:15:37.435Z,1021.66
2023-05-21T08:16:37.285Z,1021.65
2023-05-21T08:17:37.253Z,1021.62
2023-05-21T08:18:37.226Z,1021.61
2023-05-21T08:19:37.311Z,1021.62
2023-05-21T08:20:37.237Z,1021.59
2023-05-21T08:21:37.233Z,1021.6
2023-05-21T08:22:37.249Z,1021.63
2023-05-21T08:23:37.259Z,1021.6
2023-05-21T08:24:37.247Z,1021.59
2023-05-21T08:25:37.437Z,1021.56
2023-05-21T08:26:37.248Z,1021.57
2023-05-21T08:27:37.247Z,1021.57
2023-05-21T08:28:37.256Z,1021.54
2023-05-21T08:29:37.286Z,1021.55
2023-05-21T08:30:37.246Z,1021.59
2023-05-21T08:31:37.319Z,1021.54
2023-05-21T08:32:37.259Z,1021.59
2023-05-21T08:33:37.230Z,1021.53
2023-05-21T08:34:37.224Z,1021.54
2023-05-21T08:35:37.434Z,1021.56
2023-05-21T08:36:37.236Z,1021.54
2023-05-21T08:37:37.234Z,1021.57
2023-05-21T08:38:37.233Z,1021.56
2023-05-21T08:39:37.288Z,1021.56
2023-05-21T08:40:37.235Z,1021.59
2023-05-21T08:41:37.224Z,1021.57
2023-05-21T08:42:37.702Z,1021.57
2023-05-21T08:43:37.265Z,1021.55
2023-05-21T08:44:37.236Z,1021.58
2023-05-21T08:45:37.753Z,1021.59
2023-05-21T08:46:37.236Z,1021.54
2023-05-21T08:47:37.317Z,1021.58
2023-05-21T08:48:37.242Z,1021.57
2023-05-21T08:49:37.239Z,1021.61
2023-05-21T08:50:37.242Z,1021.58
2023-05-21T08:51:37.256Z,1021.61
2023-05-21T08:52:37.253Z,1021.62
2023-05-21T08:53:37.250Z,1021.61
2023-05-21T08:54:37.231Z,1021.59
2023-05-21T08:55:37.578Z,1021.59
2023-05-21T08:56:37.241Z,1021.66
2023-05-21T08:57:37.236Z,1021.66
2023-05-21T08:58:37.272Z,1021.65
2023-05-21T08:59:37.228Z,1021.64
2023-05-21T09:00:37.235Z,1021.58
2023-05-21T09:01:37.263Z,1021.59
2023-05-21T09:02:37.293Z,1021.55
2023-05-21T09:03:37.289Z,1021.56
2023-05-21T09:04:37.290Z,1021.57
2023-05-21T09:05:37.438Z,1021.55
2023-05-21T09:06:37.247Z,1021.52
2023-05-21T09:07:37.238Z,1021.57
2023-05-21T09:08:37.230Z,1021.55
2023-05-21T09:09:37.229Z,1021.63
2023-05-21T09:10:37.254Z,1021.6
2023-05-21T09:11:37.231Z,1021.61
2023-05-21T09:12:37.257Z,1021.64
2023-05-21T09:13:38.988Z,1021.63
2023-05-21T09:14:37.238Z,1021.61
2023-05-21T09:15:37.681Z,1021.63
2023-05-21T09:16:37.248Z,1021.64
2023-05-21T09:17:37.273Z,1021.59
2023-05-21T09:18:37.240Z,1021.58
2023-05-21T09:19:37.311Z,1021.64
2023-05-21T09:20:37.244Z,1021.54
2023-05-21T09:21:37.242Z,1021.47
2023-05-21T09:22:42.377Z,1021.42
2023-05-21T09:23:41.462Z,1021.36
2023-05-21T09:24:41.481Z,1021.34
2023-05-21T09:25:41.457Z,1021.32
2023-05-21T09:26:41.452Z,1021.26
2023-05-21T09:27:41.509Z,1021.3
2023-05-21T09:28:41.462Z,1021.25
2023-05-21T09:29:41.469Z,1021.31
2023-05-21T09:30:41.737Z,1021.27
2023-05-21T09:31:41.494Z,1021.22
2023-05-21T09:32:41.555Z,1021.19
2023-05-21T09:33:41.453Z,1021.17
2023-05-21T09:34:41.476Z,1021.19
2023-05-21T09:35:41.451Z,1021.19
2023-05-21T09:36:41.448Z,1021.16
2023-05-21T09:37:41.450Z,1021.16
2023-05-21T09:38:41.463Z,1021.2
2023-05-21T09:39:41.452Z,1021.18
2023-05-21T09:40:41.445Z,1021.22
2023-05-21T09:41:41.444Z,1021.27
2023-05-21T09:42:41.449Z,1021.27
2023-05-21T09:43:41.464Z,1021.28
2023-05-21T09:44:41.448Z,1021.26
2023-05-21T09:45:41.454Z,1021.27
2023-05-21T09:46:41.820Z,1021.21
2023-05-21T09:47:41.503Z,1021.24
2023-05-21T09:48:41.465Z,1021.27
2023-05-21T09:49:41.447Z,1021.3
2023-05-21T09:50:41.457Z,1021.32
2023-05-21T09:51:41.450Z,1021.36
2023-05-21T09:52:42.264Z,1021.39
2023-05-21T09:53:41.453Z,1021.38
2023-05-21T09:54:41.438Z,1021.38
2023-05-21T09:55:41.448Z,1021.42
2023-05-21T09:56:41.454Z,1021.42
2023-05-21T09:57:41.448Z,1021.42
2023-05-21T09:58:41.467Z,1021.38
2023-05-21T09:59:41.493Z,1021.35
2023-05-21T10:00:41.451Z,1021.28
2023-05-21T10:01:41.478Z,1021.25
2023-05-21T10:02:41.473Z,1021.12
2023-05-21T10:03:41.471Z,1021.06
2023-05-21T10:04:41.602Z,1021.08
2023-05-21T10:05:41.448Z,1021.03
2023-05-21T10:06:41.460Z,1020.98
2023-05-21T10:07:41.450Z,1020.94
2023-05-21T10:08:41.442Z,1020.94
2023-05-21T10:09:41.460Z,1020.93
2023-05-21T10:10:41.438Z,1020.87
2023-05-21T10:11:41.445Z,1020.87
2023-05-21T10:12:41.457Z,1020.9
2023-05-21T10:13:41.449Z,1020.85
2023-05-21T10:14:41.454Z,1020.86
2023-05-21T10:15:41.468Z,1020.8
2023-05-21T10:16:41.610Z,1020.85
2023-05-21T10:17:41.475Z,1020.91
2023-05-21T10:18:41.439Z,1020.87
2023-05-21T10:19:41.446Z,1020.88
2023-05-21T10:20:41.454Z,1020.86
2023-05-21T10:21:41.445Z,1020.88
2023-05-21T10:22:41.441Z,1020.9
2023-05-21T10:23:41.444Z,1020.9
2023-05-21T10:24:41.436Z,1020.88
2023-05-21T10:25:41.449Z,1020.91
2023-05-21T10:26:41.441Z,1020.91
2023-05-21T10:27:41.444Z,1020.89
2023-05-21T10:28:41.470Z,1020.91
2023-05-21T10:29:41.449Z,1020.85
2023-05-21T10:30:41.446Z,1020.89
2023-05-21T10:31:41.480Z,1020.87
2023-05-21T10:32:41.522Z,1020.88
2023-05-21T10:33:41.442Z,1020.86
2023-05-21T10:34:41.453Z,1020.85
2023-05-21T10:35:41.452Z,1020.85
2023-05-21T10:36:41.447Z,1020.87
2023-05-21T10:37:41.449Z,1020.81
2023-05-21T10:38:41.434Z,1020.84
2023-05-21T10:39:41.461Z,1020.84
2023-05-21T10:40:41.460Z,1020.84
2023-05-21T10:41:41.447Z,1020.81
2023-05-21T10:42:41.451Z,1020.83
2023-05-21T10:43:41.455Z,1020.85
2023-05-21T10:44:41.455Z,1020.86
2023-05-21T10:45:41.485Z,1020.8
2023-05-21T10:46:41.442Z,1020.78
2023-05-21T10:47:41.470Z,1020.83
2023-05-21T10:48:41.445Z,1020.84
2023-05-21T10:49:41.439Z,1020.8
2023-05-21T10:50:41.442Z,1020.83
2023-05-21T10:51:41.453Z,1020.73
2023-05-21T10:52:41.446Z,1020.73
2023-05-21T10:53:41.469Z,1020.72
2023-05-21T10:54:41.452Z,1020.74
2023-05-21T10:55:41.447Z,1020.71
2023-05-21T10:56:41.447Z,1020.72
2023-05-21T10:57:41.449Z,1020.72
2023-05-21T10:58:41.478Z,1020.67
2023-05-21T10:59:41.454Z,1020.72
2023-05-21T11:00:41.448Z,1020.67
2023-05-21T11:01:41.539Z,1020.67
2023-05-21T11:02:41.533Z,1020.72
2023-05-21T11:03:41.624Z,1020.73
2023-05-21T11:04:41.445Z,1020.67
2023-05-21T11:05:41.475Z,1020.66
2023-05-21T11:06:41.433Z,1020.69
2023-05-21T11:07:41.442Z,1020.73
2023-05-21T11:08:41.439Z,1020.7
2023-05-21T11:09:41.425Z,1020.7
2023-05-21T11:10:41.453Z,1020.72
2023-05-21T11:11:41.445Z,1020.7
2023-05-21T11:12:41.482Z,1020.68
2023-05-21T11:13:41.454Z,1020.66
2023-05-21T11:14:41.440Z,1020.65
2023-05-21T11:15:41.446Z,1020.66
2023-05-21T11:16:41.480Z,1020.67
2023-05-21T11:17:41.456Z,1020.63
2023-05-21T11:18:41.443Z,1020.68
2023-05-21T11:19:41.597Z,1020.68
2023-05-21T11:20:41.449Z,1020.69
2023-05-21T11:21:41.451Z,1020.66
2023-05-21T11:22:41.440Z,1020.69
2023-05-21T11:23:41.450Z,1020.67
2023-05-21T11:24:41.458Z,1020.62
2023-05-21T11:25:41.451Z,1020.67
2023-05-21T11:26:41.444Z,1020.66
2023-05-21T11:27:41.440Z,1020.68
2023-05-21T11:28:41.452Z,1020.67
2023-05-21T11:29:41.503Z,1020.69
2023-05-21T11:30:41.612Z,1020.71
2023-05-21T11:31:41.541Z,1020.67
2023-05-21T11:32:41.502Z,1020.67
2023-05-21T11:33:41.439Z,1020.67
2023-05-21T11:34:41.449Z,1020.66
2023-05-21T11:35:41.447Z,1020.63
2023-05-21T11:36:41.444Z,1020.66
2023-05-21T11:37:41.456Z,1020.71
2023-05-21T11:38:41.444Z,1020.62
2023-05-21T11:39:41.443Z,1020.63
2023-05-21T11:40:41.445Z,1020.65
2023-05-21T11:41:41.440Z,1020.64
2023-05-21T11:42:41.451Z,1020.64
2023-05-21T11:43:41.471Z,1020.6
2023-05-21T11:44:41.469Z,1020.58
2023-05-21T11:45:41.444Z,1020.67
2023-05-21T11:46:41.461Z,1020.64
2023-05-21T11:47:41.530Z,1020.64
2023-05-21T11:48:41.445Z,1020.64
2023-05-21T11:49:41.450Z,1020.67
2023-05-21T11:50:41.440Z,1020.67
2023-05-21T11:51:41.447Z,1020.66
2023-05-21T11:52:41.446Z,1020.66
2023-05-21T11:53:43.518Z,1020.66
2023-05-21T11:54:41.459Z,1020.75
2023-05-21T11:55:41.441Z,1020.71
2023-05-21T11:56:41.447Z,1020.78
2023-05-21T11:57:41.445Z,1020.78
2023-05-21T11:58:41.465Z,1020.73
2023-05-21T11:59:41.457Z,1020.77
2023-05-21T12:00:41.447Z,1020.73
2023-05-21T12:01:41.445Z,1020.75
2023-05-21T12:02:41.536Z,1020.77
2023-05-21T12:03:41.609Z,1020.75
2023-05-21T12:04:41.445Z,1020.77
2023-05-21T12:05:41.476Z,1020.78
2023-05-21T12:06:41.442Z,1020.78
2023-05-21T12:07:41.445Z,1020.78